Time;durP1;ratioP1;P1;durP2;ratioP2;P2;SDS_P1;SDS_P2;PMS_P1;PMS_P2;Temp;Humidity;BMP_temperature;BMP_pressure;BME280_temperature;BME280_humidity;BME280_pressure;Samples;Min_cycle;Max_cycle;Signal;HPM_P1;HPM_P2
2023/06/20 00:01:20;;;;;;;12.80;9.52;;;17.50;99.90;;;;;;5011978;28;20042;-71
2023/06/20 00:03:45;;;;;;;11.82;9.13;;;17.50;99.90;;;;;;5010445;28;20042;-72
2023/06/20 00:06:11;;;;;;;12.88;8.98;;;17.50;99.90;;;;;;5016813;28;20490;-72
2023/06/20 00:08:37;;;;;;;14.65;9.68;;;17.50;99.90;;;;;;5013929;28;20042;-72
2023/06/20 00:11:03;;;;;;;13.90;9.63;;;17.50;99.90;;;;;;5016519;28;20046;-71
2023/06/20 00:13:28;;;;;;;11.88;9.13;;;17.50;99.90;;;;;;5015170;28;20048;-72
2023/06/20 00:15:57;;;;;;;12.68;9.02;;;17.50;99.90;;;;;;5014183;28;20069;-72
2023/06/20 00:18:24;;;;;;;12.93;10.00;;;17.50;99.90;;;;;;5014776;28;20056;-71
2023/06/20 00:20:53;;;;;;;12.43;8.95;;;17.50;99.90;;;;;;5014883;28;20042;-72
2023/06/20 00:23:21;;;;;;;13.18;8.95;;;17.50;99.90;;;;;;5015630;28;20077;-71
2023/06/20 00:25:47;;;;;;;13.35;9.07;;;17.50;99.90;;;;;;5014826;28;20136;-72
2023/06/20 00:28:17;;;;;;;15.63;9.40;;;17.50;99.90;;;;;;5014709;28;20406;-71
2023/06/20 00:30:45;;;;;;;14.50;8.77;;;17.40;99.90;;;;;;5013810;28;20489;-72
2023/06/20 00:33:11;;;;;;;12.73;9.23;;;17.40;99.90;;;;;;5016321;28;20042;-72
2023/06/20 00:35:37;;;;;;;11.50;8.60;;;17.40;99.90;;;;;;5015971;28;20393;-72
2023/06/20 00:38:03;;;;;;;12.55;9.48;;;17.40;99.90;;;;;;5013798;28;20041;-72
2023/06/20 00:40:29;;;;;;;12.45;8.95;;;17.30;99.90;;;;;;5014487;28;20052;-72
2023/06/20 00:42:54;;;;;;;13.35;9.13;;;17.30;99.90;;;;;;5015009;28;20084;-72
2023/06/20 00:45:32;;;;;;;12.80;9.13;;;17.20;99.90;;;;;;5015649;28;20046;-72
2023/06/20 00:48:00;;;;;;;13.30;9.57;;;17.20;99.90;;;;;;5014775;28;20046;-71
2023/06/20 00:50:27;;;;;;;12.55;8.88;;;17.20;99.90;;;;;;5013907;28;20559;-72
2023/06/20 00:53:01;;;;;;;15.00;9.52;;;17.20;99.90;;;;;;5014006;28;20052;-72
2023/06/20 00:55:31;;;;;;;14.15;9.70;;;17.10;99.90;;;;;;5015391;28;20117;-72
2023/06/20 00:57:58;;;;;;;14.02;10.10;;;17.10;99.90;;;;;;5013571;28;20056;-72
2023/06/20 01:00:30;;;;;;;13.15;9.93;;;17.10;99.90;;;;;;5014511;28;20034;-72
2023/06/20 01:03:01;;;;;;;14.65;10.25;;;17.10;99.90;;;;;;5015297;28;20088;-72
2023/06/20 01:05:29;;;;;;;12.70;10.20;;;17.00;99.90;;;;;;5012990;28;20468;-72
2023/06/20 01:08:13;;;;;;;16.00;10.77;;;17.00;99.90;;;;;;5014668;28;20053;-71
2023/06/20 01:11:02;;;;;;;15.85;10.93;;;17.00;99.90;;;;;;5013580;28;20049;-72
2023/06/20 01:13:59;;;;;;;16.27;10.35;;;16.90;99.90;;;;;;4995055;28;20112;-72
2023/06/20 01:16:44;;;;;;;14.68;10.55;;;16.90;99.90;;;;;;5013936;28;20060;-72
2023/06/20 01:19:38;;;;;;;15.50;10.70;;;16.90;99.90;;;;;;5012932;28;20129;-71
2023/06/20 01:22:12;;;;;;;16.33;11.30;;;16.90;99.90;;;;;;5014967;28;20411;-72
2023/06/20 01:24:58;;;;;;;16.88;11.50;;;16.90;99.90;;;;;;5014641;28;20400;-72
2023/06/20 01:27:33;;;;;;;14.52;10.48;;;16.90;99.90;;;;;;5013327;28;20501;-72
2023/06/20 01:30:20;;;;;;;17.40;10.98;;;16.90;99.90;;;;;;5013657;28;20116;-72
2023/06/20 01:32:48;;;;;;;15.63;10.85;;;17.00;99.90;;;;;;5013869;28;20561;-71
2023/06/20 01:35:21;;;;;;;16.40;11.27;;;17.00;99.90;;;;;;5014444;28;20524;-72
2023/06/20 01:37:52;;;;;;;14.48;10.73;;;17.00;99.90;;;;;;5013653;28;20077;-72
2023/06/20 01:40:20;;;;;;;15.75;11.55;;;17.00;99.90;;;;;;5012493;28;20054;-71
2023/06/20 01:42:47;;;;;;;16.60;11.00;;;17.00;99.90;;;;;;5013593;28;20053;-72
2023/06/20 01:45:16;;;;;;;15.18;11.15;;;17.00;99.90;;;;;;5012932;28;20136;-72
2023/06/20 01:47:44;;;;;;;16.30;10.93;;;17.00;99.90;;;;;;5012341;28;20053;-71
2023/06/20 01:50:12;;;;;;;17.20;11.82;;;17.10;99.90;;;;;;5013298;28;20065;-71
2023/06/20 01:52:42;;;;;;;15.80;11.55;;;17.00;99.90;;;;;;5014411;28;20046;-71
2023/06/20 01:55:10;;;;;;;17.52;12.00;;;17.00;99.90;;;;;;5012494;28;20081;-71
2023/06/20 01:57:37;;;;;;;17.70;12.18;;;17.10;99.90;;;;;;5013132;28;20046;-71
2023/06/20 02:00:09;;;;;;;19.08;11.35;;;17.10;99.90;;;;;;5014120;28;20046;-71
2023/06/20 02:02:36;;;;;;;19.05;11.95;;;17.10;99.90;;;;;;5013231;28;20455;-71
2023/06/20 02:05:03;;;;;;;15.35;11.32;;;17.10;99.90;;;;;;5013953;28;20092;-71
2023/06/20 02:07:30;;;;;;;18.63;12.18;;;17.10;99.90;;;;;;5013587;28;20114;-71
2023/06/20 02:09:57;;;;;;;17.40;11.85;;;17.10;99.90;;;;;;5012637;28;20088;-71
2023/06/20 02:12:25;;;;;;;16.65;11.77;;;17.10;99.90;;;;;;5013248;28;20663;-71
2023/06/20 02:14:52;;;;;;;16.80;11.98;;;17.20;99.90;;;;;;5011704;28;20050;-71
2023/06/20 02:17:21;;;;;;;17.20;11.80;;;17.10;99.90;;;;;;5013850;28;20026;-71
2023/06/20 02:19:47;;;;;;;16.17;12.45;;;17.10;99.90;;;;;;5012484;28;20045;-71
2023/06/20 02:22:15;;;;;;;18.35;11.70;;;17.10;99.90;;;;;;5013055;28;20258;-71
2023/06/20 02:24:43;;;;;;;15.20;11.48;;;17.10;99.90;;;;;;5013689;28;20042;-71
2023/06/20 02:27:13;;;;;;;19.70;12.23;;;17.10;99.90;;;;;;5013340;28;20081;-71
2023/06/20 02:29:41;;;;;;;15.63;11.65;;;17.10;99.90;;;;;;5011307;28;20052;-71
2023/06/20 02:32:09;;;;;;;18.35;12.13;;;17.20;99.90;;;;;;5012494;28;20180;-71
2023/06/20 02:34:35;;;;;;;17.95;12.00;;;17.10;99.90;;;;;;5013293;28;20505;-71
2023/06/20 02:37:04;;;;;;;15.63;10.90;;;17.20;99.90;;;;;;5013099;28;20124;-71
2023/06/20 02:39:29;;;;;;;17.23;12.10;;;17.20;99.90;;;;;;5012724;28;20050;-71
2023/06/20 02:41:58;;;;;;;17.70;11.52;;;17.20;99.90;;;;;;5012248;28;20137;-71
2023/06/20 02:44:24;;;;;;;17.88;11.60;;;17.20;99.90;;;;;;5011609;28;20386;-71
2023/06/20 02:46:58;;;;;;;16.10;10.82;;;17.20;99.90;;;;;;5012366;28;20041;-71
2023/06/20 02:50:09;;;;;;;17.50;11.75;;;17.20;99.90;;;;;;5013037;28;20111;-71
2023/06/20 02:52:37;;;;;;;18.58;12.93;;;17.20;99.90;;;;;;5011096;28;20076;-71
2023/06/20 02:55:11;;;;;;;18.90;11.90;;;17.30;99.90;;;;;;5012025;28;20050;-71
2023/06/20 02:57:40;;;;;;;17.63;11.00;;;17.30;99.90;;;;;;5011277;28;20053;-71
2023/06/20 03:00:09;;;;;;;16.90;11.85;;;17.30;99.90;;;;;;5012058;28;20071;-71
2023/06/20 03:02:40;;;;;;;21.33;11.43;;;17.40;99.90;;;;;;5011762;28;20490;-71
2023/06/20 03:05:10;;;;;;;20.38;11.45;;;17.40;99.90;;;;;;5011832;28;20440;-71
2023/06/20 03:07:39;;;;;;;16.40;11.52;;;17.50;99.90;;;;;;5011740;28;20449;-71
2023/06/20 03:10:06;;;;;;;17.85;12.60;;;17.50;99.90;;;;;;5013120;28;20065;-72
2023/06/20 03:12:32;;;;;;;18.00;11.65;;;17.50;99.90;;;;;;5010834;28;20045;-71
2023/06/20 03:14:57;;;;;;;16.60;10.98;;;17.60;99.90;;;;;;5011194;28;20057;-71
2023/06/20 03:17:23;;;;;;;16.23;11.10;;;17.60;99.90;;;;;;5012849;28;20081;-71
2023/06/20 03:19:52;;;;;;;18.05;12.23;;;17.60;99.90;;;;;;5010748;28;20046;-71
2023/06/20 03:22:17;;;;;;;16.65;11.40;;;17.60;99.90;;;;;;5007938;28;20398;-71
2023/06/20 03:24:45;;;;;;;17.25;11.02;;;17.60;99.90;;;;;;5007659;28;20054;-71
2023/06/20 03:27:11;;;;;;;15.88;10.63;;;17.60;99.90;;;;;;5012496;28;20083;-71
2023/06/20 03:29:36;;;;;;;17.00;10.98;;;17.60;99.90;;;;;;5012594;28;20041;-71
2023/06/20 03:32:02;;;;;;;15.55;9.88;;;17.60;99.90;;;;;;5011134;28;20133;-71
2023/06/20 03:34:29;;;;;;;15.23;9.77;;;17.60;99.90;;;;;;5012589;28;20046;-71
2023/06/20 03:36:55;;;;;;;14.45;9.73;;;17.70;99.90;;;;;;5010946;28;20041;-71
2023/06/20 03:39:24;;;;;;;13.82;9.20;;;17.70;99.90;;;;;;5009994;28;20072;-71
2023/06/20 03:41:50;;;;;;;12.68;8.77;;;17.70;99.90;;;;;;5012158;28;20041;-71
2023/06/20 03:44:15;;;;;;;11.77;7.82;;;17.70;99.90;;;;;;5010154;28;20061;-72
2023/06/20 03:46:41;;;;;;;12.82;8.40;;;17.70;99.90;;;;;;5009388;28;20045;-70
2023/06/20 03:49:07;;;;;;;12.57;8.52;;;17.70;99.90;;;;;;5010889;28;20053;-72
2023/06/20 03:51:32;;;;;;;13.07;8.27;;;17.80;99.90;;;;;;5010281;28;20660;-72
2023/06/20 03:53:58;;;;;;;11.80;7.35;;;17.80;99.90;;;;;;5011160;28;20040;-72
2023/06/20 03:56:24;;;;;;;11.85;6.82;;;17.80;99.90;;;;;;5011575;28;20446;-70
2023/06/20 03:58:49;;;;;;;10.85;6.47;;;17.80;99.90;;;;;;5011097;28;20359;-70
2023/06/20 04:01:15;;;;;;;9.82;6.32;;;17.90;99.90;;;;;;5009474;28;20061;-71
2023/06/20 04:03:41;;;;;;;9.38;6.15;;;17.90;99.90;;;;;;5007708;28;20463;-72
2023/06/20 04:06:06;;;;;;;9.60;5.20;;;17.90;99.90;;;;;;5010700;28;20049;-72
2023/06/20 04:08:32;;;;;;;8.70;5.05;;;17.90;99.90;;;;;;5011027;28;20117;-72
2023/06/20 04:10:58;;;;;;;8.93;5.30;;;18.00;99.90;;;;;;5011856;28;20038;-72
2023/06/20 04:13:24;;;;;;;8.73;5.05;;;18.00;99.90;;;;;;5011718;28;20038;-71
2023/06/20 04:15:53;;;;;;;8.48;5.50;;;18.10;99.90;;;;;;5010114;28;20049;-71
2023/06/20 04:18:18;;;;;;;7.78;5.43;;;18.10;99.90;;;;;;5011991;28;20081;-71
2023/06/20 04:20:44;;;;;;;8.43;5.22;;;18.10;99.90;;;;;;5010645;28;20093;-72
2023/06/20 04:23:10;;;;;;;11.05;5.60;;;18.20;99.90;;;;;;5011307;28;20045;-71
2023/06/20 04:25:35;;;;;;;8.18;5.45;;;18.20;99.90;;;;;;5011998;28;20080;-72
2023/06/20 04:28:01;;;;;;;9.30;6.10;;;18.20;99.90;;;;;;5010469;28;20474;-72
2023/06/20 04:30:27;;;;;;;8.70;5.32;;;18.30;99.90;;;;;;5010280;28;20077;-72
2023/06/20 04:32:53;;;;;;;9.20;5.22;;;18.30;99.90;;;;;;5010042;28;20080;-71
2023/06/20 04:35:20;;;;;;;9.07;5.50;;;18.30;99.90;;;;;;5010078;28;20057;-72
2023/06/20 04:37:51;;;;;;;8.40;5.15;;;18.40;99.90;;;;;;5011608;28;20651;-78
2023/06/20 04:40:17;;;;;;;8.00;5.43;;;18.40;99.90;;;;;;5011587;28;20041;-75
2023/06/20 04:42:45;;;;;;;10.07;5.55;;;18.50;99.90;;;;;;5009645;28;20046;-71
2023/06/20 04:45:11;;;;;;;8.40;5.10;;;18.50;99.90;;;;;;5011993;28;20061;-69
2023/06/20 04:47:37;;;;;;;6.82;5.25;;;18.50;99.90;;;;;;5009602;28;20038;-77
2023/06/20 04:50:03;;;;;;;8.63;5.50;;;18.50;99.90;;;;;;5011611;28;20405;-70
2023/06/20 04:52:32;;;;;;;9.15;5.43;;;18.60;99.90;;;;;;5015198;28;20133;-70
2023/06/20 04:55:02;;;;;;;10.07;5.28;;;18.60;99.90;;;;;;5015526;28;20045;-70
2023/06/20 04:57:32;;;;;;;11.13;5.13;;;18.70;99.90;;;;;;5013545;28;20042;-69
2023/06/20 04:59:58;;;;;;;8.38;5.32;;;18.70;99.90;;;;;;5023976;28;20049;-70
2023/06/20 05:02:24;;;;;;;7.55;4.70;;;18.70;99.90;;;;;;5025331;28;20071;-68
2023/06/20 05:04:50;;;;;;;8.75;5.20;;;18.80;99.90;;;;;;5012907;28;20145;-69
2023/06/20 05:07:16;;;;;;;8.07;4.95;;;18.80;99.90;;;;;;5015084;28;20121;-72
2023/06/20 05:09:42;;;;;;;9.85;6.05;;;18.80;99.90;;;;;;5013955;28;20049;-72
2023/06/20 05:12:08;;;;;;;8.10;5.78;;;18.90;99.90;;;;;;5015754;28;20477;-70
2023/06/20 05:14:33;;;;;;;9.13;5.72;;;18.90;99.90;;;;;;5022871;28;20045;-71
2023/06/20 05:16:59;;;;;;;9.05;6.05;;;18.90;99.90;;;;;;5013369;28;20053;-70
2023/06/20 05:19:24;;;;;;;8.10;5.47;;;19.00;99.90;;;;;;5012929;28;20417;-70
2023/06/20 05:21:50;;;;;;;9.95;5.85;;;19.00;99.90;;;;;;5014561;28;20077;-70
2023/06/20 05:24:16;;;;;;;8.13;5.80;;;19.00;99.90;;;;;;5012852;28;20515;-71
2023/06/20 05:26:42;;;;;;;9.73;6.40;;;19.10;99.90;;;;;;5012913;28;20120;-73
2023/06/20 05:29:07;;;;;;;9.35;6.50;;;19.10;99.90;;;;;;5014610;28;20045;-84
2023/06/20 05:31:33;;;;;;;10.15;6.68;;;19.20;99.90;;;;;;5012282;28;20129;-69
2023/06/20 05:33:59;;;;;;;8.82;6.78;;;19.20;99.90;;;;;;5014780;28;20046;-70
2023/06/20 05:36:25;;;;;;;10.18;6.75;;;19.20;99.90;;;;;;5014947;28;20034;-70
2023/06/20 05:38:51;;;;;;;9.98;6.63;;;19.30;99.90;;;;;;5011160;28;20482;-79
2023/06/20 05:41:16;;;;;;;9.73;6.95;;;19.40;99.90;;;;;;5013113;28;20756;-72
2023/06/20 05:43:42;;;;;;;9.45;6.70;;;19.30;99.90;;;;;;5012791;28;20141;-70
2023/06/20 05:46:08;;;;;;;10.20;6.57;;;19.40;99.90;;;;;;5013819;28;20483;-70
2023/06/20 05:48:34;;;;;;;10.43;6.85;;;19.40;99.90;;;;;;5013440;28;20045;-71
2023/06/20 05:51:00;;;;;;;9.95;7.18;;;19.40;99.90;;;;;;5014083;28;20046;-70
2023/06/20 05:53:27;;;;;;;8.55;6.40;;;19.50;99.90;;;;;;5013873;28;20056;-69
2023/06/20 05:55:53;;;;;;;8.68;6.05;;;19.40;99.90;;;;;;5013941;28;20042;-70
2023/06/20 05:58:19;;;;;;;9.13;6.90;;;19.50;99.90;;;;;;5014204;28;20106;-68
2023/06/20 06:00:49;;;;;;;8.98;6.53;;;19.50;99.90;;;;;;5010854;28;20045;-68
2023/06/20 06:03:18;;;;;;;7.18;5.78;;;19.50;99.90;;;;;;5013232;28;20050;-68
2023/06/20 06:05:44;;;;;;;10.73;6.80;;;19.40;99.90;;;;;;5012435;28;20188;-68
2023/06/20 06:08:09;;;;;;;9.73;7.00;;;19.40;99.90;;;;;;5012277;28;20120;-68
2023/06/20 06:10:35;;;;;;;10.52;6.88;;;19.40;99.90;;;;;;5013112;28;20398;-68
2023/06/20 06:13:01;;;;;;;10.50;6.57;;;19.40;99.90;;;;;;5013537;28;20386;-68
2023/06/20 06:15:26;;;;;;;15.57;7.03;;;19.40;99.90;;;;;;5011794;28;20046;-68
2023/06/20 06:17:52;;;;;;;8.95;6.60;;;19.40;99.90;;;;;;5012735;28;20037;-68
2023/06/20 06:20:19;;;;;;;10.82;7.03;;;19.40;99.90;;;;;;5014279;28;20133;-68
2023/06/20 06:22:46;;;;;;;11.48;6.85;;;19.40;99.90;;;;;;5011885;28;20097;-68
2023/06/20 06:25:11;;;;;;;9.27;7.13;;;19.50;99.90;;;;;;5014312;28;20053;-68
2023/06/20 06:27:41;;;;;;;9.38;7.03;;;19.50;99.90;;;;;;5013014;28;20038;-69
2023/06/20 06:30:08;;;;;;;9.23;7.18;;;19.50;99.90;;;;;;5014070;28;20107;-68
2023/06/20 06:32:34;;;;;;;9.48;6.68;;;19.60;99.90;;;;;;5013878;28;20088;-69
2023/06/20 06:35:01;;;;;;;9.90;6.80;;;19.60;99.90;;;;;;5012197;28;20045;-73
2023/06/20 06:37:31;;;;;;;9.43;6.68;;;19.70;99.90;;;;;;5013794;28;20128;-68
2023/06/20 06:39:58;;;;;;;10.20;7.38;;;19.70;99.90;;;;;;5012294;28;20352;-69
2023/06/20 06:42:24;;;;;;;11.27;7.72;;;19.70;99.90;;;;;;5012994;28;20064;-69
2023/06/20 06:44:50;;;;;;;9.43;6.85;;;19.80;99.90;;;;;;5012679;28;20401;-70
2023/06/20 06:47:16;;;;;;;10.70;7.28;;;19.90;99.90;;;;;;5012407;28;20058;-67
2023/06/20 06:49:41;;;;;;;10.30;7.10;;;19.90;99.90;;;;;;5009660;28;20529;-68
2023/06/20 06:52:09;;;;;;;9.18;7.03;;;20.10;99.90;;;;;;5011612;28;20045;-67
2023/06/20 06:54:35;;;;;;;9.75;7.28;;;20.20;99.90;;;;;;5009538;28;20053;-68
2023/06/20 06:57:00;;;;;;;9.55;7.03;;;20.30;99.90;;;;;;5011169;28;20042;-68
2023/06/20 06:59:26;;;;;;;10.23;7.18;;;20.40;99.90;;;;;;5011601;28;20066;-67
2023/06/20 07:01:52;;;;;;;11.05;7.65;;;20.50;99.90;;;;;;5011257;28;20092;-67
2023/06/20 07:04:17;;;;;;;10.35;7.00;;;20.70;99.90;;;;;;5011910;28;20132;-67
2023/06/20 07:06:43;;;;;;;11.20;7.88;;;20.80;99.90;;;;;;5013277;28;20520;-67
2023/06/20 07:09:09;;;;;;;11.85;7.97;;;20.80;99.90;;;;;;5012281;28;20581;-67
2023/06/20 07:11:35;;;;;;;12.35;7.70;;;20.90;99.90;;;;;;5011134;28;20409;-68
2023/06/20 07:14:01;;;;;;;8.98;7.25;;;21.00;99.90;;;;;;5013074;28;20073;-68
2023/06/20 07:16:31;;;;;;;10.02;7.07;;;21.20;99.90;;;;;;5012995;28;20501;-68
2023/06/20 07:18:58;;;;;;;11.85;7.82;;;21.20;99.90;;;;;;5011442;28;20084;-67
2023/06/20 07:21:24;;;;;;;14.68;8.05;;;21.30;99.90;;;;;;5011976;28;20066;-67
2023/06/20 07:23:53;;;;;;;13.30;8.80;;;21.40;99.90;;;;;;5010685;28;20041;-69
2023/06/20 07:26:19;;;;;;;11.85;8.27;;;21.50;99.90;;;;;;5012593;28;20061;-68
2023/06/20 07:28:44;;;;;;;11.52;8.30;;;21.60;99.90;;;;;;5010822;28;20053;-68
2023/06/20 07:31:20;;;;;;;11.57;8.48;;;21.70;99.90;;;;;;5010932;28;20132;-68
2023/06/20 07:33:47;;;;;;;13.07;8.82;;;21.90;99.90;;;;;;5012315;28;20033;-68
2023/06/20 07:36:13;;;;;;;12.90;7.70;;;22.10;99.90;;;;;;5012819;28;20042;-68
2023/06/20 07:38:39;;;;;;;10.88;7.70;;;22.30;99.90;;;;;;5010642;28;20084;-68
2023/06/20 07:41:07;;;;;;;12.02;8.38;;;22.60;99.90;;;;;;5013154;28;20042;-68
2023/06/20 07:43:33;;;;;;;12.82;8.30;;;22.80;99.90;;;;;;5011054;28;20041;-69
2023/06/20 07:45:58;;;;;;;10.73;7.88;;;22.90;99.90;;;;;;5012163;28;20046;-68
2023/06/20 07:48:29;;;;;;;11.57;8.40;;;23.00;99.90;;;;;;5012858;28;20108;-69
2023/06/20 07:50:55;;;;;;;9.73;7.72;;;23.00;99.90;;;;;;5011608;28;20050;-68
2023/06/20 07:53:21;;;;;;;10.85;8.07;;;23.10;99.90;;;;;;5010655;28;20049;-68
2023/06/20 07:55:47;;;;;;;9.45;7.22;;;23.20;99.90;;;;;;5010430;28;20064;-68
2023/06/20 07:58:12;;;;;;;9.45;8.02;;;23.30;99.90;;;;;;5012775;28;20037;-68
2023/06/20 08:00:40;;;;;;;10.50;8.18;;;23.40;99.90;;;;;;5010270;28;20038;-68
2023/06/20 08:03:07;;;;;;;10.98;8.80;;;23.40;99.90;;;;;;5012936;28;20041;-68
2023/06/20 08:05:32;;;;;;;11.43;8.07;;;23.50;99.90;;;;;;5011990;28;20580;-68
2023/06/20 08:07:58;;;;;;;12.63;8.40;;;23.50;99.90;;;;;;5010373;28;20137;-68
2023/06/20 08:10:24;;;;;;;10.50;8.48;;;23.70;99.90;;;;;;5011454;28;20179;-68
2023/06/20 08:12:49;;;;;;;11.00;8.55;;;23.70;99.90;;;;;;5012554;28;20117;-69
2023/06/20 08:15:15;;;;;;;9.40;7.80;;;23.90;99.90;;;;;;5011605;28;20479;-69
2023/06/20 08:17:43;;;;;;;10.77;8.27;;;24.10;99.90;;;;;;5011350;28;20057;-69
2023/06/20 08:20:09;;;;;;;10.65;8.52;;;24.20;99.90;;;;;;5011202;28;20446;-68
2023/06/20 08:22:36;;;;;;;10.40;8.15;;;24.20;99.90;;;;;;5010549;28;20505;-79
2023/06/20 08:25:03;;;;;;;11.95;8.20;;;24.30;99.90;;;;;;5012895;28;20401;-68
2023/06/20 08:27:28;;;;;;;10.07;8.73;;;24.20;99.90;;;;;;5015839;28;20072;-68
2023/06/20 08:29:54;;;;;;;12.05;8.65;;;24.20;99.90;;;;;;5015947;28;20139;-68
2023/06/20 08:32:23;;;;;;;12.45;8.38;;;24.70;99.90;;;;;;5019576;28;20393;-68
2023/06/20 08:34:49;;;;;;;11.63;9.02;;;25.30;99.90;;;;;;5015641;28;20497;-69
2023/06/20 08:37:18;;;;;;;11.05;8.48;;;25.70;99.90;;;;;;5014444;28;20448;-69
2023/06/20 08:39:49;;;;;;;9.38;8.00;;;26.10;99.90;;;;;;5016144;28;20096;-68
2023/06/20 08:42:15;;;;;;;9.98;8.50;;;26.30;99.40;;;;;;5015288;28;20038;-68
2023/06/20 08:44:40;;;;;;;10.07;8.60;;;26.40;99.20;;;;;;5016049;28;20042;-67
2023/06/20 08:47:09;;;;;;;10.50;8.55;;;26.20;98.70;;;;;;5015910;28;20092;-67
2023/06/20 08:49:35;;;;;;;9.63;8.60;;;26.20;99.30;;;;;;5013837;28;20058;-68
2023/06/20 08:52:11;;;;;;;10.82;8.60;;;26.10;99.30;;;;;;5015923;28;20096;-68
2023/06/20 08:54:40;;;;;;;11.98;9.57;;;26.20;98.40;;;;;;5014483;28;20350;-68
2023/06/20 08:57:06;;;;;;;13.40;9.48;;;26.00;98.50;;;;;;5014920;28;20092;-67
2023/06/20 08:59:34;;;;;;;12.48;9.98;;;26.00;98.90;;;;;;5014344;28;20081;-67
2023/06/20 09:02:00;;;;;;;10.55;8.48;;;25.80;98.50;;;;;;5014207;28;20033;-69
2023/06/20 09:04:29;;;;;;;11.52;8.98;;;25.50;99.10;;;;;;5015080;28;20383;-73
2023/06/20 09:06:55;;;;;;;10.05;8.95;;;25.50;99.10;;;;;;5015489;28;20092;-67
2023/06/20 09:09:21;;;;;;;10.55;8.82;;;25.80;99.80;;;;;;5013962;28;20437;-69
2023/06/20 09:11:48;;;;;;;11.57;9.18;;;26.40;99.50;;;;;;5013798;28;20038;-78
2023/06/20 09:14:15;;;;;;;11.52;9.15;;;27.00;98.00;;;;;;5014416;28;20511;-67
2023/06/20 09:16:42;;;;;;;11.35;8.52;;;27.50;97.30;;;;;;5014074;28;20041;-71
2023/06/20 09:19:08;;;;;;;12.68;9.52;;;27.80;96.90;;;;;;5015433;28;20042;-71
2023/06/20 09:21:38;;;;;;;12.45;8.98;;;28.00;96.50;;;;;;5013899;28;20054;-71
2023/06/20 09:24:07;;;;;;;9.32;8.02;;;28.20;96.90;;;;;;5014778;28;20398;-71
2023/06/20 09:26:33;;;;;;;9.70;8.25;;;28.40;95.80;;;;;;5013936;28;20038;-72
2023/06/20 09:29:10;;;;;;;10.05;7.40;;;28.70;95.80;;;;;;5014563;28;20434;-71
2023/06/20 09:31:44;;;;;;;11.52;8.05;;;28.90;95.20;;;;;;5012990;28;20049;-71
2023/06/20 09:34:15;;;;;;;10.82;9.10;;;28.90;95.10;;;;;;5014524;28;20042;-71
2023/06/20 09:36:41;;;;;;;10.32;8.93;;;29.20;94.90;;;;;;5013751;28;20042;-71
2023/06/20 09:39:20;;;;;;;9.82;8.48;;;29.10;95.10;;;;;;5014217;28;20172;-72
2023/06/20 09:41:52;;;;;;;9.60;7.95;;;29.30;94.50;;;;;;5013910;28;20045;-71
2023/06/20 09:44:19;;;;;;;10.05;7.82;;;29.40;94.40;;;;;;5014446;28;20046;-71
2023/06/20 09:46:46;;;;;;;10.30;8.57;;;29.50;94.00;;;;;;5013437;28;20532;-71
2023/06/20 09:49:13;;;;;;;10.48;8.52;;;29.20;94.90;;;;;;5012834;28;20481;-71
2023/06/20 09:51:47;;;;;;;13.32;8.50;;;29.40;94.60;;;;;;5012228;28;20042;-71
2023/06/20 09:54:15;;;;;;;10.02;7.85;;;29.40;94.10;;;;;;5015088;28;20124;-71
2023/06/20 09:56:56;;;;;;;10.45;8.20;;;29.40;95.10;;;;;;5013178;28;20050;-71
2023/06/20 09:59:26;;;;;;;11.02;8.63;;;29.30;93.80;;;;;;5013475;28;20088;-71
2023/06/20 10:01:54;;;;;;;9.00;7.72;;;29.00;94.20;;;;;;5014731;28;20050;-70
2023/06/20 10:04:21;;;;;;;8.80;7.90;;;29.30;94.60;;;;;;5014912;28;20057;-71
2023/06/20 10:06:48;;;;;;;9.23;8.23;;;29.40;93.70;;;;;;5014189;28;20038;-71
2023/06/20 10:09:15;;;;;;;9.98;8.45;;;29.40;93.90;;;;;;5013277;28;20053;-71
2023/06/20 10:11:41;;;;;;;8.55;7.65;;;29.40;93.50;;;;;;5013312;28;20052;-71
2023/06/20 10:14:08;;;;;;;10.82;7.93;;;29.40;93.80;;;;;;5011589;28;20065;-71
2023/06/20 10:16:34;;;;;;;10.20;8.00;;;29.30;94.20;;;;;;5014361;28;20041;-71
2023/06/20 10:19:17;;;;;;;9.98;7.50;;;29.60;94.40;;;;;;5013121;28;20433;-71
2023/06/20 10:21:57;;;;;;;8.20;7.30;;;30.00;93.80;;;;;;5011889;28;20049;-71
2023/06/20 10:24:29;;;;;;;9.40;7.10;;;30.40;94.70;;;;;;5012292;28;20046;-71
2023/06/20 10:26:59;;;;;;;9.73;7.78;;;30.80;93.70;;;;;;5012025;28;20046;-71
2023/06/20 10:29:25;;;;;;;10.38;7.47;;;30.50;92.30;;;;;;5014118;28;20405;-71
2023/06/20 10:32:02;;;;;;;8.68;7.28;;;30.50;92.50;;;;;;5013899;28;20183;-71
2023/06/20 10:34:39;;;;;;;7.13;6.43;;;30.70;93.40;;;;;;5012903;28;20132;-71
2023/06/20 10:37:41;;;;;;;9.18;7.15;;;30.70;92.60;;;;;;5013950;28;20054;-71
2023/06/20 10:40:10;;;;;;;9.68;6.22;;;30.80;92.50;;;;;;5013089;28;20096;-71
2023/06/20 10:42:43;;;;;;;9.10;6.80;;;31.10;94.10;;;;;;5011198;28;20054;-71
2023/06/20 10:45:21;;;;;;;9.73;6.65;;;31.50;91.60;;;;;;5014085;28;20088;-71
2023/06/20 10:47:47;;;;;;;8.95;6.30;;;31.10;91.20;;;;;;5010922;28;20053;-71
2023/06/20 10:50:14;;;;;;;7.90;6.10;;;30.90;91.70;;;;;;5014023;28;20042;-71
2023/06/20 10:52:41;;;;;;;7.35;5.68;;;30.80;92.10;;;;;;5011756;28;20477;-70
2023/06/20 10:55:14;;;;;;;7.55;6.35;;;30.80;91.80;;;;;;5013179;28;20512;-71
2023/06/20 10:57:48;;;;;;;7.90;6.28;;;31.00;91.20;;;;;;5011585;28;20042;-71
2023/06/20 11:00:19;;;;;;;7.53;6.30;;;31.00;91.30;;;;;;5013801;28;20478;-71
2023/06/20 11:02:47;;;;;;;7.30;4.85;;;31.10;90.80;;;;;;5012211;28;20409;-71
2023/06/20 11:05:13;;;;;;;7.13;6.00;;;30.90;91.50;;;;;;5012376;28;20050;-71
2023/06/20 11:07:55;;;;;;;7.15;5.93;;;31.10;91.00;;;;;;5011836;28;20046;-73
2023/06/20 11:10:29;;;;;;;8.00;6.05;;;31.00;91.00;;;;;;5011129;28;20489;-71
2023/06/20 11:12:56;;;;;;;7.53;6.50;;;31.00;91.70;;;;;;5012136;28;20049;-72
2023/06/20 11:15:24;;;;;;;9.50;5.82;;;31.10;91.50;;;;;;5013641;28;20041;-71
2023/06/20 11:17:50;;;;;;;6.95;6.22;;;31.40;92.20;;;;;;5012286;28;20177;-72
2023/06/20 11:20:17;;;;;;;7.78;6.65;;;31.40;91.20;;;;;;4993958;28;20046;-72
2023/06/20 11:22:46;;;;;;;8.75;6.80;;;31.10;90.90;;;;;;4997677;28;20068;-71
2023/06/20 11:25:12;;;;;;;9.18;6.72;;;31.30;91.10;;;;;;5012797;28;20139;-71
2023/06/20 11:27:40;;;;;;;7.95;5.88;;;31.20;91.50;;;;;;5011974;28;20382;-71
2023/06/20 11:30:06;;;;;;;7.05;6.35;;;31.30;91.10;;;;;;5011109;28;20057;-71
2023/06/20 11:32:32;;;;;;;8.57;6.50;;;31.30;91.60;;;;;;5012963;28;20041;-71
2023/06/20 11:35:03;;;;;;;6.55;5.75;;;31.40;91.00;;;;;;5012988;28;20056;-70
2023/06/20 11:37:33;;;;;;;6.65;4.50;;;31.20;91.60;;;;;;5012022;28;20069;-70
2023/06/20 11:39:59;;;;;;;5.88;4.88;;;31.20;90.40;;;;;;5013299;28;20139;-71
2023/06/20 11:42:25;;;;;;;6.35;5.28;;;31.10;90.50;;;;;;5013348;28;20144;-71
2023/06/20 11:44:51;;;;;;;5.10;4.30;;;31.00;90.10;;;;;;5011234;28;20038;-71
2023/06/20 11:47:16;;;;;;;6.15;5.20;;;30.90;91.30;;;;;;5011586;28;20048;-73
2023/06/20 11:49:42;;;;;;;7.43;5.28;;;31.00;90.50;;;;;;5006775;28;20065;-71
2023/06/20 11:52:09;;;;;;;5.97;5.05;;;31.30;90.90;;;;;;5006473;28;20049;-71
2023/06/20 11:54:56;;;;;;;6.68;4.30;;;31.50;90.10;;;;;;5014873;28;20048;-71
2023/06/20 11:57:30;;;;;;;5.97;4.80;;;31.70;89.30;;;;;;5012794;28;20053;-70
2023/06/20 11:59:59;;;;;;;5.85;5.00;;;31.70;89.90;;;;;;5005689;28;20069;-69
2023/06/20 12:02:26;;;;;;;5.22;4.63;;;31.80;89.90;;;;;;5009981;28;20541;-71
2023/06/20 12:04:59;;;;;;;5.75;5.00;;;31.70;90.00;;;;;;5003983;28;20057;-72
2023/06/20 12:07:26;;;;;;;7.85;4.70;;;31.70;90.40;;;;;;5011728;28;20068;-72
2023/06/20 12:09:52;;;;;;;6.00;4.75;;;31.20;90.30;;;;;;5021398;28;20136;-71
2023/06/20 12:12:28;;;;;;;6.13;4.45;;;31.50;90.30;;;;;;5015096;28;20472;-71
2023/06/20 12:14:54;;;;;;;7.30;4.80;;;31.40;90.40;;;;;;5011869;28;20041;-77
2023/06/20 12:17:19;;;;;;;5.70;4.53;;;31.50;89.30;;;;;;5018681;28;20411;-74
2023/06/20 12:19:53;;;;;;;5.70;4.57;;;31.60;89.80;;;;;;5018039;28;20038;-71
2023/06/20 12:22:18;;;;;;;6.32;4.28;;;31.80;89.20;;;;;;5011884;28;20497;-72
2023/06/20 12:24:45;;;;;;;5.82;4.30;;;31.50;87.70;;;;;;5015080;28;20042;-73
2023/06/20 12:27:11;;;;;;;6.40;4.20;;;31.30;88.40;;;;;;5010022;28;20077;-73
2023/06/20 12:29:37;;;;;;;6.78;4.63;;;31.30;88.80;;;;;;5013632;28;20042;-72
2023/06/20 12:32:04;;;;;;;6.13;4.82;;;31.40;88.90;;;;;;5018494;28;20408;-71
2023/06/20 12:34:29;;;;;;;5.90;4.60;;;31.50;88.30;;;;;;5013494;28;20064;-73
2023/06/20 12:36:55;;;;;;;6.35;4.60;;;31.80;88.00;;;;;;5009909;28;20050;-71
2023/06/20 12:39:21;;;;;;;6.55;4.75;;;32.00;87.30;;;;;;5010123;28;20042;-72
2023/06/20 12:41:46;;;;;;;6.53;4.85;;;32.00;87.70;;;;;;5010519;28;20378;-72
2023/06/20 12:44:12;;;;;;;5.60;4.70;;;31.90;87.90;;;;;;5010154;28;20045;-73